createdAt,value
2023-05-21T00:00:25.689Z,82.424000
2023-05-21T00:05:27.433Z,82.340000
2023-05-21T00:10:29.523Z,81.704000
2023-05-21T00:15:31.541Z,82.784000
2023-05-21T00:20:33.752Z,82.556000
2023-05-21T00:25:35.665Z,82.256000
2023-05-21T00:30:17.461Z,81.836000
2023-05-21T00:35:19.881Z,82.208000
2023-05-21T00:40:21.913Z,81.608000
2023-05-21T00:45:23.961Z,81.320000
2023-05-21T00:50:26.154Z,80.888000
2023-05-21T00:55:28.675Z,80.828000
2023-05-21T01:00:30.723Z,80.864000
2023-05-21T01:05:33.380Z,80.504000
2023-05-21T01:10:34.852Z,80.384000
2023-05-21T01:15:16.774Z,80.408000
2023-05-21T01:20:19.524Z,79.928000
2023-05-21T01:25:21.625Z,79.976000
2023-05-21T01:30:23.888Z,79.777143
2023-05-21T01:35:26.573Z,79.880000
2023-05-21T01:40:28.568Z,80.096000
2023-05-21T01:45:30.700Z,79.784000
2023-05-21T01:50:33.721Z,79.340000
2023-05-21T01:55:35.762Z,78.884000
2023-05-21T02:00:17.425Z,78.632000
2023-05-21T02:05:19.439Z,78.272000
2023-05-21T02:10:21.691Z,77.888000
2023-05-21T02:15:23.591Z,77.360000
2023-05-21T02:20:25.702Z,76.400000
2023-05-21T02:25:27.929Z,75.596000
2023-05-21T02:30:29.875Z,75.092000
2023-05-21T02:35:32.374Z,74.384000
2023-05-21T02:40:34.186Z,73.964000
2023-05-21T02:45:15.820Z,73.820000
2023-05-21T02:50:17.819Z,73.808000
2023-05-21T02:55:20.242Z,73.772000
2023-05-21T03:00:22.359Z,73.605714
2023-05-21T03:05:24.277Z,73.088000
2023-05-21T03:10:26.634Z,72.716000
2023-05-21T03:15:28.621Z,71.948000
2023-05-21T03:20:30.938Z,70.328000
2023-05-21T03:25:32.593Z,69.596000
2023-05-21T03:30:34.442Z,69.236000
2023-05-21T03:35:16.521Z,68.756000
2023-05-21T03:40:18.801Z,68.648000
2023-05-21T03:45:20.718Z,68.708000
2023-05-21T03:50:22.654Z,68.218571
2023-05-21T03:55:24.790Z,68.396000
2023-05-21T04:00:26.780Z,68.504000
2023-05-21T04:05:29.309Z,67.964000
2023-05-21T04:10:31.421Z,67.160000
2023-05-21T04:15:33.327Z,66.572000
2023-05-21T04:20:15.943Z,66.680000
2023-05-21T04:25:18.826Z,66.284000
2023-05-21T04:30:21.155Z,66.260000
2023-05-21T04:35:23.121Z,65.930000
2023-05-21T04:40:25.376Z,65.972000
2023-05-21T04:45:27.527Z,66.308000
2023-05-21T04:50:29.548Z,66.668000
2023-05-21T04:55:31.694Z,66.536000
2023-05-21T05:00:34.209Z,65.684000
2023-05-21T05:05:16.351Z,65.552000
2023-05-21T05:10:18.499Z,65.060000
2023-05-21T05:15:20.727Z,64.372308
2023-05-21T05:20:23.310Z,64.208000
2023-05-21T05:25:25.391Z,64.508000
2023-05-21T05:30:27.303Z,64.688000
2023-05-21T05:35:29.283Z,64.088000
2023-05-21T05:40:31.238Z,64.088000
2023-05-21T05:45:32.950Z,63.884000
2023-05-21T05:50:35.154Z,64.232000
2023-05-21T05:55:16.971Z,64.568000
2023-05-21T06:00:19.199Z,64.124000
2023-05-21T06:05:21.881Z,63.500000
2023-05-21T06:10:23.511Z,62.947143
2023-05-21T06:15:26.040Z,62.528000
2023-05-21T06:20:28.078Z,62.384000
2023-05-21T06:25:29.914Z,62.132000
2023-05-21T06:30:32.290Z,61.808000
2023-05-21T06:35:34.491Z,61.916000
2023-05-21T06:40:16.190Z,62.180000
2023-05-21T06:45:18.581Z,62.324000
2023-05-21T06:50:20.421Z,62.000000
2023-05-21T06:55:22.598Z,61.700000
2023-05-21T07:00:24.784Z,61.964000
2023-05-21T07:05:26.918Z,61.304000
2023-05-21T07:10:28.869Z,60.056000
2023-05-21T07:15:30.737Z,59.804000
2023-05-21T07:20:32.863Z,59.708000
2023-05-21T07:25:35.222Z,59.168000
2023-05-21T07:30:17.230Z,59.492000
2023-05-21T07:35:19.626Z,59.168000
2023-05-21T07:40:21.920Z,58.472857
2023-05-21T07:45:23.972Z,57.944000
2023-05-21T07:50:25.792Z,58.268000
2023-05-21T07:55:27.691Z,59.624000
2023-05-21T08:00:29.594Z,60.656000
2023-05-21T08:05:31.600Z,59.840000
2023-05-21T08:10:33.741Z,59.264000
2023-05-21T08:15:35.950Z,59.228000
2023-05-21T08:20:17.760Z,59.564000
2023-05-21T08:25:19.953Z,59.744000
2023-05-21T08:30:21.722Z,58.844000
2023-05-21T08:35:23.666Z,56.852857
2023-05-21T08:40:25.689Z,56.672000
2023-05-21T08:45:27.810Z,56.756000
2023-05-21T08:50:29.569Z,56.864000
2023-05-21T08:55:31.478Z,56.840000
2023-05-21T09:00:33.810Z,56.876000
2023-05-21T09:05:15.747Z,57.272000
2023-05-21T09:10:17.831Z,57.392000
2023-05-21T09:15:19.750Z,57.020000
2023-05-21T09:20:21.822Z,56.684000
2023-05-21T09:25:23.623Z,57.482857
2023-05-21T09:30:28.551Z,57.188000
2023-05-21T09:35:27.770Z,57.200000
2023-05-21T09:40:29.777Z,57.140000
2023-05-21T09:45:31.929Z,56.972000
2023-05-21T09:50:33.826Z,57.104000
2023-05-21T09:55:35.795Z,56.516000
2023-05-21T10:00:17.597Z,56.012000
2023-05-21T10:05:19.663Z,55.856000
2023-05-21T10:10:21.594Z,55.700000
2023-05-21T10:15:23.605Z,55.194286
2023-05-21T10:20:25.799Z,55.676000
2023-05-21T10:25:27.670Z,55.496000
2023-05-21T10:30:29.603Z,55.088000
2023-05-21T10:35:23.518Z,55.544000
2023-05-21T10:40:33.827Z,55.760000
2023-05-21T10:45:36.351Z,55.184000
2023-05-21T10:50:23.583Z,54.821429
2023-05-21T10:55:25.600Z,54.200000
2023-05-21T11:00:27.712Z,56.120000
2023-05-21T11:05:29.535Z,55.952000
2023-05-21T11:10:31.369Z,55.880000
2023-05-21T11:15:33.381Z,55.820000
2023-05-21T11:20:35.439Z,55.148000
2023-05-21T11:25:16.949Z,56.312000
2023-05-21T11:30:18.895Z,56.588000
2023-05-21T11:35:20.708Z,56.624000
2023-05-21T11:40:22.796Z,56.235714
2023-05-21T11:45:24.868Z,55.400000
2023-05-21T11:50:26.852Z,54.860000
2023-05-21T11:55:28.693Z,54.536000
2023-05-21T12:00:30.602Z,55.592000
2023-05-21T12:05:32.489Z,55.820000
2023-05-21T12:10:34.640Z,55.712000
2023-05-21T12:15:16.209Z,55.604000
2023-05-21T12:20:18.321Z,55.964000
2023-05-21T12:25:20.435Z,55.940000
2023-05-21T12:30:22.188Z,55.708571
2023-05-21T12:35:24.674Z,55.712000
2023-05-21T12:40:26.103Z,56.108000
2023-05-21T12:45:28.037Z,56.588000
2023-05-21T12:50:29.933Z,56.852000
2023-05-21T12:55:31.890Z,57.200000
2023-05-21T13:00:33.749Z,56.960000
2023-05-21T13:05:35.751Z,56.804000
2023-05-21T13:10:17.321Z,57.440000
2023-05-21T13:15:19.236Z,58.196000
2023-05-21T13:20:21.327Z,57.968000
2023-05-21T13:25:23.083Z,58.138571
2023-05-21T13:30:25.050Z,57.680000
2023-05-21T13:35:27.051Z,58.004000
2023-05-21T13:40:29.045Z,57.860000
2023-05-21T13:45:30.927Z,57.944000
2023-05-21T13:50:33.060Z,59.168000
2023-05-21T13:55:34.933Z,60.044000
2023-05-21T14:00:16.742Z,60.596000
2023-05-21T14:05:18.674Z,60.740000
2023-05-21T14:10:20.702Z,61.508000
2023-05-21T14:15:22.542Z,62.021429
2023-05-21T14:20:24.644Z,62.660000
2023-05-21T14:25:26.403Z,63.764000
2023-05-21T14:30:28.302Z,63.872000
2023-05-21T14:35:30.291Z,63.548000
2023-05-21T14:40:32.392Z,63.764000
2023-05-21T14:45:34.183Z,64.088000
2023-05-21T14:50:16.003Z,65.096000
2023-05-21T14:55:18.199Z,65.408000
2023-05-21T15:00:20.019Z,65.924000
2023-05-21T15:05:21.918Z,66.152000
2023-05-21T15:10:23.710Z,66.187143
2023-05-21T15:15:25.751Z,67.304000
2023-05-21T15:20:27.531Z,67.616000
2023-05-21T15:25:29.359Z,66.980000
2023-05-21T15:30:31.355Z,67.352000
2023-05-21T15:35:33.721Z,68.468000
2023-05-21T15:40:35.320Z,69.116000
2023-05-21T15:45:17.130Z,70.028000
2023-05-21T15:50:19.053Z,71.144000
2023-05-21T15:55:21.396Z,71.516000
2023-05-21T16:00:23.004Z,70.944286
2023-05-21T16:05:24.887Z,71.192000
2023-05-21T16:10:27.046Z,70.892000
2023-05-21T16:15:28.854Z,72.056000
2023-05-21T16:20:30.884Z,73.196000
2023-05-21T16:25:32.761Z,72.980000
2023-05-21T16:30:34.673Z,73.304000
2023-05-21T16:35:16.419Z,73.076000
2023-05-21T16:40:18.350Z,73.868000
2023-05-21T16:45:20.197Z,74.420000
2023-05-21T16:50:22.071Z,74.840000
2023-05-21T16:55:24.113Z,73.760000
2023-05-21T17:00:25.895Z,74.612000
2023-05-21T17:05:27.763Z,76.172000
2023-05-21T17:10:29.634Z,77.048000
2023-05-21T17:15:31.627Z,77.552000
2023-05-21T17:20:33.705Z,77.000000
2023-05-21T17:25:35.377Z,76.208000
2023-05-21T17:30:17.043Z,75.584000
2023-05-21T17:35:19.009Z,75.896000
2023-05-21T17:40:21.025Z,77.528000
2023-05-21T17:45:22.784Z,78.761429
2023-05-21T17:50:24.578Z,77.696000
2023-05-21T17:55:26.660Z,77.768000
2023-05-21T18:00:28.427Z,77.948000
2023-05-21T18:05:30.263Z,77.432000
2023-05-21T18:10:32.574Z,77.756000
2023-05-21T18:15:34.834Z,78.344000
2023-05-21T18:20:16.004Z,78.980000
2023-05-21T18:25:17.970Z,79.280000
2023-05-21T18:30:19.981Z,79.028000
2023-05-21T18:35:21.789Z,77.828000
2023-05-21T18:40:23.650Z,78.080000
2023-05-21T18:45:25.512Z,78.596000
2023-05-21T18:50:27.377Z,79.232000
2023-05-21T18:55:29.323Z,79.424000
2023-05-21T19:00:31.090Z,77.888000
2023-05-21T19:05:33.121Z,78.908000
2023-05-21T19:10:37.344Z,80.144000
2023-05-21T19:15:16.958Z,80.168000
2023-05-21T19:20:18.715Z,80.468000
2023-05-21T19:25:20.715Z,79.424000
2023-05-21T19:30:22.675Z,81.024286
2023-05-21T19:35:24.695Z,80.456000
2023-05-21T19:40:26.642Z,79.268000
2023-05-21T19:45:28.670Z,80.372000
2023-05-21T19:50:30.819Z,81.032000
2023-05-21T19:55:32.837Z,80.108000
2023-05-21T20:00:34.772Z,80.792000
2023-05-21T20:05:16.557Z,81.788000
2023-05-21T20:10:18.523Z,80.924000
2023-05-21T20:15:20.282Z,81.836000
2023-05-21T20:20:22.124Z,81.962857
2023-05-21T20:25:24.138Z,82.328000
2023-05-21T20:30:26.032Z,82.460000
2023-05-21T20:35:27.963Z,82.616000
2023-05-21T20:40:29.854Z,82.988000
2023-05-21T20:45:31.933Z,82.364000
2023-05-21T20:50:33.926Z,82.676000
2023-05-21T20:55:47.997Z,82.592000
2023-05-21T21:00:22.769Z,82.991429
2023-05-21T21:05:24.838Z,83.228000
2023-05-21T21:10:26.588Z,82.844000
2023-05-21T21:15:28.588Z,83.588000
2023-05-21T21:20:30.500Z,82.208000
2023-05-21T21:25:32.633Z,82.496000
2023-05-21T21:30:34.380Z,82.376000
2023-05-21T21:35:16.166Z,82.964000
2023-05-21T21:40:18.223Z,82.976000
2023-05-21T21:45:20.202Z,83.264000
2023-05-21T21:50:22.278Z,82.258571
2023-05-21T21:55:24.445Z,83.576000
2023-05-21T22:00:26.847Z,83.468000
2023-05-21T22:05:40.711Z,83.444000
2023-05-21T22:10:30.768Z,83.528000
2023-05-21T22:15:32.860Z,83.840000
2023-05-21T22:20:34.919Z,84.044000
2023-05-21T22:25:16.888Z,83.576000
2023-05-21T22:30:19.104Z,83.828000
2023-05-21T22:35:21.254Z,84.032000
2023-05-21T22:40:23.470Z,83.981429
2023-05-21T22:45:25.821Z,83.120000
2023-05-21T22:50:27.949Z,82.700000
2023-05-21T22:55:30.133Z,82.124000
2023-05-21T23:00:32.487Z,81.236000
2023-05-21T23:05:34.457Z,80.384000
2023-05-21T23:10:16.233Z,80.432000
2023-05-21T23:15:18.248Z,81.308000
2023-05-21T23:20:20.435Z,82.352000
2023-05-21T23:25:22.710Z,83.261429
2023-05-21T23:30:24.735Z,83.708000
2023-05-21T23:35:26.562Z,84.704000
2023-05-21T23:40:28.540Z,84.164000
2023-05-21T23:45:30.681Z,84.044000
2023-05-21T23:50:32.837Z,83.900000
2023-05-21T23:55:34.967Z,84.296000
